createdAt,value
2018-12-02T00:01:15.389Z,9.70
2018-12-02T00:03:46.798Z,9.70
2018-12-02T00:06:18.306Z,9.70
2018-12-02T00:08:49.499Z,9.80
2018-12-02T00:11:20.758Z,9.80
2018-12-02T00:13:52.073Z,9.80
2018-12-02T00:16:23.282Z,9.80
2018-12-02T00:18:55.787Z,9.80
2018-12-02T00:21:27.060Z,9.90
2018-12-02T00:23:58.814Z,9.90
2018-12-02T00:26:29.834Z,9.80
2018-12-02T00:29:01.528Z,9.90
2018-12-02T00:31:34.411Z,9.80
2018-12-02T00:34:06.234Z,9.80
2018-12-02T00:36:37.558Z,9.80
2018-12-02T00:39:08.726Z,9.90
2018-12-02T00:41:40.706Z,9.80
2018-12-02T00:44:11.677Z,9.80
2018-12-02T00:46:42.689Z,9.80
2018-12-02T00:49:13.874Z,9.80
2018-12-02T00:51:45.105Z,9.80
2018-12-02T00:54:17.054Z,9.80
2018-12-02T00:56:48.039Z,9.80
2018-12-02T00:59:19.227Z,9.80
2018-12-02T01:01:51.291Z,9.80
2018-12-02T01:04:22.575Z,9.80
2018-12-02T01:06:53.782Z,9.80
2018-12-02T01:09:24.762Z,9.80
2018-12-02T01:11:55.750Z,9.80
2018-12-02T01:14:26.787Z,9.80
2018-12-02T01:16:57.774Z,9.80
2018-12-02T01:19:28.935Z,9.80
2018-12-02T01:22:00.313Z,9.80
2018-12-02T01:24:31.321Z,9.80
2018-12-02T01:27:02.525Z,9.80
2018-12-02T01:29:33.715Z,9.90
2018-12-02T01:32:04.976Z,9.90
2018-12-02T01:34:36.181Z,9.90
2018-12-02T01:37:07.726Z,9.90
2018-12-02T01:39:39.550Z,9.90
2018-12-02T01:42:10.653Z,10.00
2018-12-02T01:44:42.121Z,10.00
2018-12-02T01:47:13.251Z,10.00
2018-12-02T01:49:44.429Z,10.00
2018-12-02T01:52:15.657Z,10.00
2018-12-02T01:54:46.793Z,10.00
2018-12-02T01:57:18.293Z,10.00
2018-12-02T01:59:49.373Z,10.00
2018-12-02T02:02:21.242Z,10.00
2018-12-02T02:04:52.541Z,10.00
2018-12-02T02:07:23.775Z,10.00
2018-12-02T02:09:54.934Z,10.00
2018-12-02T02:12:25.970Z,10.10
2018-12-02T02:14:57.606Z,10.20
2018-12-02T02:17:28.699Z,10.10
2018-12-02T02:20:00.174Z,10.10
2018-12-02T02:22:31.514Z,10.10
2018-12-02T02:25:02.705Z,10.10
2018-12-02T02:27:34.167Z,10.10
2018-12-02T02:30:10.055Z,10.10
2018-12-02T02:32:41.006Z,10.10
2018-12-02T02:35:12.531Z,10.10
2018-12-02T02:37:44.043Z,10.10
2018-12-02T02:40:19.726Z,10.10
2018-12-02T02:42:51.091Z,10.10
2018-12-02T02:45:22.441Z,10.10
2018-12-02T02:47:53.426Z,10.10
2018-12-02T02:50:25.620Z,10.10
2018-12-02T02:53:00.048Z,10.20
2018-12-02T02:55:31.135Z,10.10
2018-12-02T02:58:02.818Z,10.20
2018-12-02T03:00:33.950Z,10.20
2018-12-02T03:03:05.141Z,10.20
2018-12-02T03:05:36.326Z,10.30
2018-12-02T03:08:08.156Z,10.20
2018-12-02T03:10:39.450Z,10.20
2018-12-02T03:13:10.430Z,10.20
2018-12-02T03:15:41.448Z,10.20
2018-12-02T03:18:12.556Z,10.20
2018-12-02T03:20:44.114Z,10.20
2018-12-02T03:23:15.301Z,10.20
2018-12-02T03:25:46.574Z,10.20
2018-12-02T03:28:18.460Z,10.20
2018-12-02T03:30:49.960Z,10.20
2018-12-02T03:33:21.441Z,10.30
2018-12-02T03:35:52.528Z,10.30
2018-12-02T03:38:23.718Z,10.30
2018-12-02T03:40:54.961Z,10.30
2018-12-02T03:43:26.290Z,10.30
2018-12-02T03:45:57.490Z,10.30
2018-12-02T03:48:28.696Z,10.30
2018-12-02T03:50:59.683Z,10.30
2018-12-02T03:53:30.689Z,10.30
2018-12-02T03:56:01.878Z,10.40
2018-12-02T03:58:33.285Z,10.40
2018-12-02T04:01:04.327Z,10.40
2018-12-02T04:03:35.950Z,10.40
2018-12-02T04:06:07.331Z,10.40
2018-12-02T04:08:38.618Z,10.50
2018-12-02T04:11:09.606Z,10.60
2018-12-02T04:13:41.089Z,10.60
2018-12-02T04:16:12.382Z,10.60
2018-12-02T04:18:43.570Z,10.60
2018-12-02T04:21:14.603Z,10.60
2018-12-02T04:23:46.003Z,10.60
2018-12-02T04:26:17.345Z,10.60
2018-12-02T04:28:48.540Z,10.60
2018-12-02T04:31:19.795Z,10.60
2018-12-02T04:33:51.106Z,10.70
2018-12-02T04:36:22.298Z,10.70
2018-12-02T04:38:53.546Z,10.70
2018-12-02T04:41:25.194Z,10.70
2018-12-02T04:43:56.454Z,10.70
2018-12-02T04:46:27.645Z,10.70
2018-12-02T04:48:58.878Z,10.70
2018-12-02T04:51:29.863Z,10.80
2018-12-02T04:54:01.027Z,10.80
2018-12-02T04:56:32.243Z,10.70
2018-12-02T04:59:03.498Z,10.60
2018-12-02T05:01:34.866Z,10.60
2018-12-02T05:04:06.321Z,10.60
2018-12-02T05:06:37.866Z,10.60
2018-12-02T05:09:09.642Z,10.60
2018-12-02T05:11:40.933Z,10.60
2018-12-02T05:14:12.121Z,10.60
2018-12-02T05:16:43.315Z,10.60
2018-12-02T05:19:14.510Z,10.60
2018-12-02T05:21:45.742Z,10.60
2018-12-02T05:24:16.702Z,10.60
2018-12-02T05:26:47.707Z,10.60
2018-12-02T05:29:18.695Z,10.60
2018-12-02T05:31:49.918Z,10.60
2018-12-02T05:34:21.074Z,10.60
2018-12-02T05:36:52.075Z,10.60
2018-12-02T05:39:23.506Z,10.60
2018-12-02T05:42:00.339Z,10.70
2018-12-02T05:44:31.738Z,10.70
2018-12-02T05:47:02.942Z,10.60
2018-12-02T05:49:33.910Z,10.60
2018-12-02T05:52:05.411Z,10.70
2018-12-02T05:54:36.530Z,10.80
2018-12-02T05:57:07.803Z,10.80
2018-12-02T05:59:39.097Z,10.90
2018-12-02T06:02:10.826Z,10.90
2018-12-02T06:04:42.070Z,10.80
2018-12-02T06:07:13.054Z,10.70
2018-12-02T06:09:44.529Z,10.90
2018-12-02T06:12:15.817Z,10.90
2018-12-02T06:14:47.000Z,10.90
2018-12-02T06:18:20.749Z,10.90
2018-12-02T06:20:52.434Z,10.90
2018-12-02T06:23:23.688Z,10.80
2018-12-02T06:25:54.890Z,10.70
2018-12-02T06:28:26.104Z,10.90
2018-12-02T06:30:57.274Z,10.80
2018-12-02T06:33:28.493Z,10.70
2018-12-02T06:35:59.654Z,10.70
2018-12-02T06:38:31.206Z,10.70
2018-12-02T06:41:02.235Z,10.70
2018-12-02T06:43:33.425Z,10.60
2018-12-02T06:46:04.691Z,10.80
2018-12-02T06:48:36.174Z,10.80
2018-12-02T06:51:07.447Z,10.70
2018-12-02T06:53:38.632Z,10.80
2018-12-02T06:56:24.417Z,10.70
2018-12-02T06:59:22.538Z,10.80
2018-12-02T07:02:20.090Z,10.80
2018-12-02T07:04:51.666Z,10.80
2018-12-02T07:07:23.450Z,10.90
2018-12-02T07:09:54.609Z,10.80
2018-12-02T07:12:25.728Z,11.00
2018-12-02T07:14:56.747Z,10.90
2018-12-02T07:17:30.614Z,10.90
2018-12-02T07:20:06.220Z,11.00
2018-12-02T07:22:37.866Z,10.80
2018-12-02T07:25:10.275Z,10.80
2018-12-02T07:27:42.020Z,10.80
2018-12-02T07:30:13.542Z,10.80
2018-12-02T07:32:44.686Z,10.80
2018-12-02T07:35:16.394Z,10.90
2018-12-02T07:37:52.850Z,10.80
2018-12-02T07:40:34.389Z,10.90
2018-12-02T07:43:07.713Z,11.00
2018-12-02T07:45:39.781Z,11.10
2018-12-02T07:48:11.781Z,11.10
2018-12-02T07:50:43.387Z,11.10
2018-12-02T07:53:14.893Z,11.00
2018-12-02T07:55:45.890Z,11.00
2018-12-02T07:58:17.369Z,11.10
2018-12-02T08:00:48.470Z,11.10
2018-12-02T08:03:19.638Z,11.10
2018-12-02T08:05:50.855Z,11.30
2018-12-02T08:08:21.854Z,11.20
2018-12-02T08:10:52.898Z,11.30
2018-12-02T08:13:24.014Z,11.30
2018-12-02T08:15:55.022Z,11.40
2018-12-02T08:18:26.443Z,11.40
2018-12-02T08:20:58.070Z,11.40
2018-12-02T08:23:29.186Z,11.50
2018-12-02T08:26:00.167Z,11.50
2018-12-02T08:28:31.382Z,11.60
2018-12-02T08:31:02.870Z,11.70
2018-12-02T08:33:33.946Z,11.60
2018-12-02T08:36:05.285Z,11.50
2018-12-02T08:38:36.566Z,11.60
2018-12-02T08:41:08.317Z,11.70
2018-12-02T08:43:39.778Z,11.60
2018-12-02T08:46:10.874Z,11.60
2018-12-02T08:48:42.056Z,11.60
2018-12-02T08:51:13.266Z,11.60
2018-12-02T08:53:44.498Z,11.60
2018-12-02T08:56:15.834Z,11.60
2018-12-02T08:58:47.023Z,11.70
2018-12-02T09:01:18.529Z,11.70
2018-12-02T09:03:49.857Z,11.70
2018-12-02T09:06:21.495Z,11.70
2018-12-02T09:08:52.787Z,11.60
2018-12-02T09:11:24.050Z,11.60
2018-12-02T09:13:55.155Z,11.60
2018-12-02T09:16:26.160Z,11.60
2018-12-02T09:18:57.386Z,11.60
2018-12-02T09:21:28.782Z,11.60
2018-12-02T09:24:00.114Z,11.60
2018-12-02T09:26:31.810Z,11.60
2018-12-02T09:29:03.151Z,11.60
2018-12-02T09:31:34.778Z,11.70
2018-12-02T09:34:06.176Z,11.80
2018-12-02T09:36:37.446Z,11.80
2018-12-02T09:39:10.770Z,11.80
2018-12-02T09:41:42.035Z,11.80
2018-12-02T09:44:13.416Z,11.80
2018-12-02T09:46:44.384Z,11.90
2018-12-02T09:49:15.562Z,11.90
2018-12-02T09:51:46.766Z,12.10
2018-12-02T09:54:23.241Z,12.00
2018-12-02T09:56:49.367Z,11.90
2018-12-02T09:59:20.538Z,12.00
2018-12-02T10:01:51.787Z,12.10
2018-12-02T10:04:23.037Z,12.20
2018-12-02T10:06:55.234Z,12.20
2018-12-02T10:09:26.480Z,12.30
2018-12-02T10:11:57.515Z,12.30
2018-12-02T10:14:28.707Z,12.20
2018-12-02T10:16:59.936Z,12.20
2018-12-02T10:19:31.084Z,12.10
2018-12-02T10:22:02.498Z,12.10
2018-12-02T10:24:33.859Z,12.20
2018-12-02T10:27:05.100Z,12.20
2018-12-02T10:29:36.429Z,12.20
2018-12-02T10:32:12.359Z,12.30
2018-12-02T10:34:39.370Z,12.30
2018-12-02T10:37:11.101Z,12.30
2018-12-02T10:39:42.335Z,12.40
2018-12-02T10:42:13.848Z,12.40
2018-12-02T10:44:45.353Z,12.40
2018-12-02T10:47:17.366Z,12.40
2018-12-02T10:49:48.674Z,12.40
2018-12-02T10:52:20.098Z,12.40
2018-12-02T10:54:51.574Z,12.50
2018-12-02T10:57:23.651Z,12.60
2018-12-02T10:59:55.558Z,12.70
2018-12-02T11:02:26.787Z,12.80
2018-12-02T11:04:57.784Z,12.90
2018-12-02T11:07:28.974Z,12.90
2018-12-02T11:10:01.483Z,13.00
2018-12-02T11:12:32.584Z,13.00
2018-12-02T11:15:04.014Z,13.00
2018-12-02T11:17:35.421Z,13.00
2018-12-02T11:20:08.919Z,13.10
2018-12-02T11:22:40.279Z,13.10
2018-12-02T11:25:15.070Z,13.10
2018-12-02T11:27:46.394Z,13.10
2018-12-02T11:30:18.438Z,13.00
2018-12-02T11:32:50.481Z,13.00
2018-12-02T11:35:22.399Z,13.10
2018-12-02T11:37:53.695Z,13.10
2018-12-02T11:40:25.335Z,13.20
2018-12-02T11:42:56.974Z,13.20
2018-12-02T11:45:28.093Z,13.20
2018-12-02T11:47:59.456Z,13.10
2018-12-02T11:50:30.440Z,13.10
2018-12-02T11:53:01.621Z,13.20
2018-12-02T11:55:32.886Z,13.20
2018-12-02T11:58:03.838Z,13.20
2018-12-02T12:00:36.959Z,13.30
2018-12-02T12:03:08.298Z,13.30
2018-12-02T12:05:40.206Z,13.40
2018-12-02T12:08:12.811Z,13.50
2018-12-02T12:10:44.094Z,13.50
2018-12-02T12:13:15.577Z,13.60
2018-12-02T12:15:46.885Z,13.60
2018-12-02T12:18:18.076Z,13.70
2018-12-02T12:20:49.315Z,13.80
2018-12-02T12:23:22.473Z,13.70
2018-12-02T12:25:54.146Z,13.80
2018-12-02T12:28:25.401Z,13.70
2018-12-02T12:30:56.463Z,13.80
2018-12-02T12:33:27.566Z,13.80
2018-12-02T12:35:58.602Z,13.80
2018-12-02T12:38:29.562Z,13.70
2018-12-02T12:41:00.566Z,13.70
2018-12-02T12:43:35.382Z,13.70
2018-12-02T12:46:06.879Z,13.80
2018-12-02T12:48:37.869Z,13.80
2018-12-02T12:51:08.869Z,13.80
2018-12-02T12:53:39.856Z,13.70
2018-12-02T12:56:11.656Z,13.70
2018-12-02T12:58:42.657Z,13.60
2018-12-02T13:01:14.014Z,13.60
2018-12-02T13:03:46.126Z,13.70
2018-12-02T13:06:17.443Z,13.70
2018-12-02T13:08:48.810Z,13.70
2018-12-02T13:11:20.550Z,13.70
2018-12-02T13:13:51.563Z,13.80
2018-12-02T13:16:22.738Z,13.80
2018-12-02T13:18:53.766Z,13.90
2018-12-02T13:21:25.169Z,13.90
2018-12-02T13:23:56.543Z,14.00
2018-12-02T13:26:27.754Z,14.00
2018-12-02T13:28:58.895Z,14.00
2018-12-02T13:31:30.073Z,14.00
2018-12-02T13:34:01.571Z,14.00
2018-12-02T13:36:32.463Z,14.10
2018-12-02T13:39:03.850Z,14.10
2018-12-02T13:41:35.546Z,14.10
2018-12-02T13:44:07.709Z,14.20
2018-12-02T13:46:38.994Z,14.10
2018-12-02T13:49:10.183Z,14.20
2018-12-02T13:51:41.391Z,14.20
2018-12-02T13:54:17.337Z,14.20
2018-12-02T13:56:49.181Z,14.30
2018-12-02T13:59:20.446Z,14.20
2018-12-02T14:01:51.642Z,14.30
2018-12-02T14:04:22.838Z,14.30
2018-12-02T14:06:54.342Z,14.40
2018-12-02T14:09:25.431Z,14.50
2018-12-02T14:11:56.614Z,14.50
2018-12-02T14:14:28.098Z,14.50
2018-12-02T14:17:06.962Z,14.60
2018-12-02T14:19:38.328Z,14.70
2018-12-02T14:22:09.319Z,14.70
2018-12-02T14:24:40.362Z,14.70
2018-12-02T14:27:12.732Z,14.70
2018-12-02T14:29:51.034Z,14.70
2018-12-02T14:32:23.645Z,14.50
2018-12-02T14:34:55.360Z,14.50
2018-12-02T14:37:26.421Z,14.50
2018-12-02T14:39:57.598Z,14.40
2018-12-02T14:42:28.834Z,14.40
2018-12-02T14:45:00.006Z,14.30
2018-12-02T14:47:32.264Z,14.30
2018-12-02T14:50:03.634Z,14.20
2018-12-02T14:52:34.946Z,14.30
2018-12-02T14:55:07.261Z,14.40
2018-12-02T14:57:39.600Z,14.30
2018-12-02T15:00:17.051Z,14.30
2018-12-02T15:02:49.204Z,14.20
2018-12-02T15:05:21.167Z,14.10
2018-12-02T15:07:52.799Z,14.10
2018-12-02T15:10:24.835Z,14.20
2018-12-02T15:12:57.094Z,14.20
2018-12-02T15:15:28.640Z,14.20
2018-12-02T15:18:00.031Z,14.20
2018-12-02T15:20:31.265Z,14.20
2018-12-02T15:23:03.367Z,14.10
2018-12-02T15:25:36.090Z,14.00
2018-12-02T15:28:07.526Z,14.00
2018-12-02T15:30:38.751Z,14.00
2018-12-02T15:33:10.042Z,14.10
2018-12-02T15:35:41.602Z,14.10
2018-12-02T15:38:12.899Z,14.00
2018-12-02T15:40:44.581Z,14.10
2018-12-02T15:43:15.671Z,14.00
2018-12-02T15:45:46.667Z,13.90
2018-12-02T15:48:17.854Z,14.00
2018-12-02T15:50:50.546Z,14.00
2018-12-02T15:53:20.430Z,14.00
2018-12-02T15:55:51.639Z,14.00
2018-12-02T15:58:23.068Z,14.00
2018-12-02T16:00:54.851Z,13.90
2018-12-02T16:03:26.032Z,13.80
2018-12-02T16:05:57.196Z,13.80
2018-12-02T16:08:28.231Z,13.90
2018-12-02T16:10:59.590Z,13.90
2018-12-02T16:13:30.963Z,13.90
2018-12-02T16:16:02.437Z,13.80
2018-12-02T16:18:33.711Z,13.80
2018-12-02T16:21:05.230Z,13.80
2018-12-02T16:23:36.343Z,13.90
2018-12-02T16:26:07.570Z,13.80
2018-12-02T16:28:38.685Z,13.80
2018-12-02T16:31:09.899Z,13.70
2018-12-02T16:33:41.259Z,13.80
2018-12-02T16:36:12.682Z,13.80
2018-12-02T16:38:44.409Z,13.70
2018-12-02T16:41:15.727Z,13.70
2018-12-02T16:43:47.294Z,13.70
2018-12-02T16:46:18.592Z,13.80
2018-12-02T16:48:49.777Z,13.70
2018-12-02T16:51:20.982Z,13.60
2018-12-02T16:53:51.975Z,13.70
2018-12-02T16:56:22.965Z,13.70
2018-12-02T16:59:05.806Z,13.70
2018-12-02T17:01:37.383Z,13.60
2018-12-02T17:04:08.795Z,13.60
2018-12-02T17:06:40.166Z,13.60
2018-12-02T17:09:14.406Z,13.60
2018-12-02T17:11:46.138Z,13.60
2018-12-02T17:14:17.321Z,13.60
2018-12-02T17:16:48.478Z,13.60
2018-12-02T17:19:19.813Z,13.60
2018-12-02T17:21:51.046Z,13.60
2018-12-02T17:24:22.381Z,13.50
2018-12-02T17:26:53.397Z,13.50
2018-12-02T17:29:25.082Z,13.50
2018-12-02T17:32:09.067Z,13.50
2018-12-02T17:34:40.134Z,13.50
2018-12-02T17:37:11.138Z,13.40
2018-12-02T17:39:50.195Z,13.50
2018-12-02T17:42:21.179Z,13.50
2018-12-02T17:44:52.365Z,13.50
2018-12-02T17:47:23.568Z,13.50
2018-12-02T17:49:55.039Z,13.50
2018-12-02T17:52:26.339Z,13.50
2018-12-02T17:54:57.321Z,13.50
2018-12-02T17:57:28.816Z,13.50
2018-12-02T17:59:59.890Z,13.50
2018-12-02T18:02:30.913Z,13.50
2018-12-02T18:05:02.362Z,13.50
2018-12-02T18:07:33.985Z,13.50
2018-12-02T18:10:06.277Z,13.40
2018-12-02T18:12:37.621Z,13.50
2018-12-02T18:15:12.543Z,13.40
2018-12-02T18:17:43.861Z,13.40
2018-12-02T18:20:19.397Z,13.50
2018-12-02T18:22:50.446Z,13.50
2018-12-02T18:25:21.871Z,13.50
2018-12-02T18:27:53.049Z,13.40
2018-12-02T18:31:33.538Z,13.40
2018-12-02T18:34:04.659Z,13.50
2018-12-02T18:36:37.686Z,13.50
2018-12-02T18:39:13.809Z,13.50
2018-12-02T18:41:48.062Z,13.40
2018-12-02T18:44:19.522Z,13.40
2018-12-02T18:46:51.097Z,13.40
2018-12-02T18:49:22.443Z,13.40
2018-12-02T18:51:54.446Z,13.40
2018-12-02T18:54:25.558Z,13.30
2018-12-02T18:56:56.739Z,13.30
2018-12-02T18:59:27.929Z,13.30
2018-12-02T19:01:58.951Z,13.30
2018-12-02T19:04:30.114Z,13.30
2018-12-02T19:07:01.319Z,13.30
2018-12-02T19:09:32.686Z,13.20
2018-12-02T19:12:03.972Z,13.20
2018-12-02T19:14:35.270Z,13.20
2018-12-02T19:17:06.958Z,13.10
2018-12-02T19:19:38.045Z,13.10
2018-12-02T19:22:09.551Z,13.10
2018-12-02T19:24:40.626Z,13.10
2018-12-02T19:27:11.819Z,13.00
2018-12-02T19:29:43.014Z,13.10
2018-12-02T19:32:13.999Z,13.10
2018-12-02T19:34:45.239Z,13.20
2018-12-02T19:37:16.430Z,13.10
2018-12-02T19:39:47.774Z,13.10
2018-12-02T19:42:18.834Z,13.00
2018-12-02T19:44:50.158Z,13.10
2018-12-02T19:47:21.846Z,13.10
2018-12-02T19:49:53.126Z,13.10
2018-12-02T19:52:24.129Z,13.10
2018-12-02T19:54:55.323Z,13.10
2018-12-02T19:57:26.538Z,13.20
2018-12-02T19:59:57.499Z,13.30
2018-12-02T20:02:28.525Z,13.30
2018-12-02T20:04:59.702Z,13.20
2018-12-02T20:07:31.178Z,13.20
2018-12-02T20:10:02.656Z,13.20
2018-12-02T20:12:33.914Z,13.20
2018-12-02T20:15:05.603Z,13.30
2018-12-02T20:17:37.196Z,13.10
2018-12-02T20:20:19.608Z,13.10
2018-12-02T20:22:50.656Z,13.20
2018-12-02T20:25:24.675Z,13.00
2018-12-02T20:28:00.574Z,13.10
2018-12-02T20:30:33.909Z,13.10
2018-12-02T20:33:05.975Z,13.10
2018-12-02T20:35:38.371Z,13.10
2018-12-02T20:38:09.773Z,13.10
2018-12-02T20:40:41.146Z,13.10
2018-12-02T20:43:13.611Z,13.10
2018-12-02T20:45:44.813Z,13.20
2018-12-02T20:48:16.644Z,13.10
2018-12-02T20:50:48.486Z,13.10
2018-12-02T20:53:21.328Z,13.20
2018-12-02T20:55:54.104Z,13.00
2018-12-02T20:58:25.392Z,12.90
2018-12-02T21:00:59.161Z,12.90
2018-12-02T21:03:34.709Z,12.90
2018-12-02T21:06:16.185Z,12.80
2018-12-02T21:08:48.441Z,12.70
2018-12-02T21:11:20.054Z,12.80
2018-12-02T21:13:51.407Z,12.90
2018-12-02T21:16:22.901Z,12.80
2018-12-02T21:18:54.994Z,12.70
2018-12-02T21:21:26.511Z,12.60
2018-12-02T21:23:58.314Z,12.30
2018-12-02T21:26:29.522Z,12.40
2018-12-02T21:29:00.700Z,12.40
2018-12-02T21:31:32.653Z,12.30
2018-12-02T21:34:03.296Z,12.30
2018-12-02T21:36:34.269Z,12.40
2018-12-02T21:39:08.522Z,12.30
2018-12-02T21:41:40.031Z,12.40
2018-12-02T21:44:11.195Z,12.40
2018-12-02T21:46:42.204Z,12.40
2018-12-02T21:49:13.458Z,12.50
2018-12-02T21:51:44.811Z,12.40
2018-12-02T21:54:16.155Z,12.20
2018-12-02T21:56:47.168Z,12.20
2018-12-02T21:59:18.340Z,12.20
2018-12-02T22:01:49.532Z,12.30
2018-12-02T22:04:20.723Z,12.30
2018-12-02T22:06:51.909Z,12.40
2018-12-02T22:09:23.608Z,12.50
2018-12-02T22:11:54.918Z,12.60
2018-12-02T22:15:28.711Z,12.60
2018-12-02T22:17:59.802Z,12.60
2018-12-02T22:20:31.030Z,12.50
2018-12-02T22:23:02.167Z,12.60
2018-12-02T22:25:34.772Z,12.50
2018-12-02T22:28:08.749Z,12.60
2018-12-02T22:30:39.938Z,12.60
2018-12-02T22:33:11.062Z,12.60
2018-12-02T22:35:42.250Z,12.40
2018-12-02T22:38:13.454Z,12.40
2018-12-02T22:40:44.650Z,12.40
2018-12-02T22:43:15.825Z,12.30
2018-12-02T22:45:47.696Z,12.40
2018-12-02T22:48:19.007Z,12.50
2018-12-02T22:50:50.156Z,12.60
2018-12-02T22:53:21.593Z,12.60
2018-12-02T22:55:52.785Z,12.60
2018-12-02T22:58:23.770Z,12.50
2018-12-02T23:00:59.780Z,12.60
2018-12-02T23:03:31.059Z,12.60
2018-12-02T23:06:02.555Z,12.70
2018-12-02T23:08:33.839Z,12.70
2018-12-02T23:11:05.263Z,12.70
2018-12-02T23:13:36.406Z,12.80
2018-12-02T23:16:08.473Z,12.80
2018-12-02T23:18:39.612Z,12.70
2018-12-02T23:21:11.503Z,12.80
2018-12-02T23:23:42.558Z,12.80
2018-12-02T23:26:13.780Z,12.70
2018-12-02T23:28:45.126Z,12.80
2018-12-02T23:31:16.138Z,12.70
2018-12-02T23:33:47.370Z,12.70
2018-12-02T23:36:18.701Z,12.80
2018-12-02T23:38:49.885Z,12.90
2018-12-02T23:41:21.098Z,12.90
2018-12-02T23:43:52.101Z,12.80
2018-12-02T23:46:23.075Z,12.80
2018-12-02T23:48:54.262Z,12.80
2018-12-02T23:51:25.506Z,12.80
2018-12-02T23:54:00.102Z,12.80
2018-12-02T23:56:34.050Z,12.90
2018-12-02T23:59:05.163Z,12.90
